DWW111 MMCZ-CYHZ
Flight info
| Callsign | DWW111 |
|---|---|
| Flight time | N/A |
| Altitude | 31000 |
| Route | ROTGI3C ROTGI UM219 MYDIA Y240 SNAKR M219 KNOST Q109 TEEEM Q99 BLAAN Q69 EMCET Q103 SLOJO Q75 SACRI/N0491F330 Q75 COPLY Q475 TUSKY PEGGY5 |
| Aircraft | B77L/H-SDE1E2E3FGHIJ2J3J4J5M1RWXY/LB1D1 |
Departure
| Time | 2026-04-18 15:20 |
|---|---|
| Airport | Cozumel International Airport (MMCZ) |
Arrival
| Time | N/A |
|---|---|
| Airport | Halifax / Stanfield International Airport (CYHZ) |
| Time | Latitude | Longitude | Altitude | Speed | Heading |
|---|---|---|---|---|---|
| 2026-04-18 15:03 | 20.51316 | -86.93188 | 28 ft | 0 kts | 115° |
| 2026-04-18 15:14 | 20.51315 | -86.93185 | 28 ft | 4 kts | 115° |
| 2026-04-18 15:15 | 20.51320 | -86.93057 | 28 ft | 10 kts | 28° |
| 2026-04-18 15:15 | 20.51384 | -86.93038 | 28 ft | 10 kts | 357° |
| 2026-04-18 15:15 | 20.51446 | -86.93068 | 28 ft | 10 kts | 326° |
| 2026-04-18 15:15 | 20.51503 | -86.93109 | 27 ft | 10 kts | 326° |
| 2026-04-18 15:16 | 20.51561 | -86.93150 | 27 ft | 11 kts | 326° |
| 2026-04-18 15:16 | 20.51627 | -86.93200 | 28 ft | 13 kts | 321° |
| 2026-04-18 15:16 | 20.51682 | -86.93274 | 29 ft | 13 kts | 297° |
| 2026-04-18 15:16 | 20.51721 | -86.93361 | 31 ft | 13 kts | 296° |
| 2026-04-18 15:17 | 20.51769 | -86.93465 | 32 ft | 20 kts | 296° |
| 2026-04-18 15:17 | 20.51830 | -86.93599 | 27 ft | 20 kts | 294° |
| 2026-04-18 15:17 | 20.51889 | -86.93736 | 29 ft | 20 kts | 296° |
| 2026-04-18 15:17 | 20.51941 | -86.93875 | 28 ft | 20 kts | 275° |
| 2026-04-18 15:18 | 20.51966 | -86.93987 | 29 ft | 10 kts | 347° |
| 2026-04-18 15:18 | 20.51987 | -86.93947 | 28 ft | 7 kts | 110° |
| 2026-04-18 15:18 | 20.51984 | -86.93938 | 28 ft | 0 kts | 112° |
| 2026-04-18 15:19 | 20.51952 | -86.93867 | 28 ft | 46 kts | 116° |
| 2026-04-18 15:19 | 20.51672 | -86.93254 | 30 ft | 136 kts | 116° |
| 2026-04-18 15:19 | 20.51167 | -86.92107 | 256 ft | 190 kts | 116° |
| 2026-04-18 15:20 | 20.50574 | -86.90801 | 916 ft | 205 kts | 111° |
| 2026-04-18 15:20 | 20.50407 | -86.89213 | 1233 ft | 232 kts | 73° |
| 2026-04-18 15:20 | 20.51035 | -86.87609 | 1919 ft | 241 kts | 71° |
| 2026-04-18 15:20 | 20.51374 | -86.85829 | 2438 ft | 250 kts | 83° |
| 2026-04-18 15:21 | 20.51670 | -86.83943 | 3165 ft | 259 kts | 81° |
| 2026-04-18 15:21 | 20.52050 | -86.82063 | 3882 ft | 266 kts | 79° |
| 2026-04-18 15:21 | 20.52472 | -86.80127 | 4732 ft | 269 kts | 79° |
| 2026-04-18 15:21 | 20.52909 | -86.78171 | 5504 ft | 274 kts | 78° |
| 2026-04-18 15:22 | 20.53358 | -86.76179 | 6277 ft | 278 kts | 78° |
| 2026-04-18 15:22 | 20.53948 | -86.74186 | 6935 ft | 282 kts | 61° |
| 2026-04-18 15:22 | 20.55195 | -86.72590 | 7511 ft | 286 kts | 46° |
| 2026-04-18 15:22 | 20.56630 | -86.71061 | 8250 ft | 288 kts | 47° |
| 2026-04-18 15:23 | 20.58008 | -86.69558 | 9075 ft | 287 kts | 47° |
| 2026-04-18 15:23 | 20.59400 | -86.68030 | 9871 ft | 288 kts | 47° |
| 2026-04-18 15:23 | 20.60806 | -86.66483 | 10459 ft | 296 kts | 47° |
| 2026-04-18 15:23 | 20.62293 | -86.64841 | 10635 ft | 319 kts | 47° |
| 2026-04-18 15:24 | 20.63887 | -86.63077 | 10820 ft | 342 kts | 47° |
| 2026-04-18 15:24 | 20.65590 | -86.61190 | 10982 ft | 363 kts | 47° |
| 2026-04-18 15:24 | 20.67372 | -86.59215 | 11454 ft | 375 kts | 47° |
| 2026-04-18 15:24 | 20.69196 | -86.57193 | 12054 ft | 381 kts | 47° |
| 2026-04-18 15:25 | 20.71042 | -86.55145 | 12787 ft | 384 kts | 47° |
| 2026-04-18 15:25 | 20.72899 | -86.53083 | 13522 ft | 386 kts | 47° |
| 2026-04-18 15:25 | 20.74769 | -86.51006 | 14188 ft | 389 kts | 47° |
| 2026-04-18 15:25 | 20.76643 | -86.48907 | 14797 ft | 392 kts | 47° |
| 2026-04-18 15:26 | 20.78525 | -86.46775 | 15375 ft | 396 kts | 47° |
| 2026-04-18 15:26 | 20.80423 | -86.44624 | 15955 ft | 399 kts | 47° |
| 2026-04-18 15:26 | 20.82432 | -86.42592 | 16412 ft | 401 kts | 36° |
| 2026-04-18 15:26 | 20.84991 | -86.41332 | 16803 ft | 412 kts | 15° |
| 2026-04-18 15:27 | 20.87852 | -86.40963 | 17411 ft | 417 kts | 1° |
| 2026-04-18 15:27 | 20.90724 | -86.41414 | 17988 ft | 420 kts | 348° |
| 2026-04-18 15:27 | 20.93567 | -86.42211 | 18407 ft | 426 kts | 347° |
| 2026-04-18 15:27 | 20.96438 | -86.43051 | 18858 ft | 429 kts | 347° |
| 2026-04-18 15:28 | 20.99326 | -86.43889 | 19380 ft | 431 kts | 347° |
| 2026-04-18 15:28 | 21.02228 | -86.44711 | 19903 ft | 432 kts | 347° |
| 2026-04-18 15:28 | 21.05142 | -86.45519 | 20397 ft | 434 kts | 347° |
| 2026-04-18 15:28 | 21.08076 | -86.46322 | 20869 ft | 437 kts | 347° |
| 2026-04-18 15:29 | 21.11035 | -86.47127 | 21336 ft | 439 kts | 347° |
| 2026-04-18 15:29 | 21.14004 | -86.47935 | 21802 ft | 442 kts | 347° |
| 2026-04-18 15:29 | 21.16998 | -86.48750 | 22268 ft | 444 kts | 347° |
| 2026-04-18 15:29 | 21.20002 | -86.49570 | 22730 ft | 447 kts | 347° |
| 2026-04-18 15:30 | 21.23023 | -86.50394 | 23185 ft | 449 kts | 347° |
| 2026-04-18 15:30 | 21.26059 | -86.51222 | 23622 ft | 452 kts | 347° |
| 2026-04-18 15:30 | 21.29117 | -86.52058 | 23991 ft | 454 kts | 347° |
| 2026-04-18 15:30 | 21.32186 | -86.52897 | 24370 ft | 456 kts | 346° |
| 2026-04-18 15:31 | 21.35261 | -86.53738 | 24774 ft | 457 kts | 346° |
| 2026-04-18 15:31 | 21.38352 | -86.54584 | 25142 ft | 459 kts | 346° |
| 2026-04-18 15:31 | 21.41449 | -86.55431 | 25511 ft | 460 kts | 346° |
| 2026-04-18 15:31 | 21.44557 | -86.56282 | 25875 ft | 462 kts | 346° |
| 2026-04-18 15:32 | 21.47677 | -86.57137 | 26225 ft | 464 kts | 346° |
| 2026-04-18 15:32 | 21.50816 | -86.57997 | 26568 ft | 466 kts | 346° |
| 2026-04-18 15:32 | 21.53967 | -86.58861 | 26909 ft | 468 kts | 346° |
| 2026-04-18 15:32 | 21.57128 | -86.59728 | 27258 ft | 470 kts | 346° |
| 2026-04-18 15:33 | 21.60308 | -86.60601 | 27609 ft | 472 kts | 346° |
| 2026-04-18 15:33 | 21.63497 | -86.61477 | 27932 ft | 475 kts | 346° |
| 2026-04-18 15:33 | 21.66716 | -86.62361 | 27936 ft | 479 kts | 346° |
| 2026-04-18 15:33 | 21.69937 | -86.63247 | 27958 ft | 477 kts | 346° |
| 2026-04-18 15:34 | 21.76326 | -86.65004 | 28040 ft | 474 kts | 346° |
| 2026-04-18 15:34 | 21.82740 | -86.66729 | 28035 ft | 474 kts | 349° |
| 2026-04-18 15:35 | 21.86028 | -86.66940 | 28064 ft | 477 kts | 5° |
| 2026-04-18 15:35 | 21.89270 | -86.66194 | 28275 ft | 478 kts | 13° |
| 2026-04-18 15:35 | 21.92510 | -86.65321 | 28502 ft | 481 kts | 12° |
| 2026-04-18 15:35 | 21.95776 | -86.64523 | 28815 ft | 483 kts | 11° |
| 2026-04-18 15:36 | 21.99070 | -86.63759 | 29144 ft | 484 kts | 11° |
| 2026-04-18 15:36 | 22.02362 | -86.63010 | 29450 ft | 485 kts | 10° |
| 2026-04-18 15:36 | 22.05672 | -86.62258 | 29717 ft | 487 kts | 10° |
| 2026-04-18 15:36 | 22.07920 | -86.61745 | 29912 ft | 489 kts | 10° |
| 2026-04-18 15:37 | 22.11204 | -86.60992 | 30198 ft | 489 kts | 10° |
| 2026-04-18 15:37 | 22.14566 | -86.60215 | 30562 ft | 487 kts | 10° |
| 2026-04-18 15:37 | 22.17872 | -86.59449 | 30934 ft | 486 kts | 10° |
| 2026-04-18 15:37 | 22.21140 | -86.58692 | 31043 ft | 489 kts | 10° |
| 2026-04-18 15:38 | 22.27838 | -86.57138 | 31031 ft | 486 kts | 10° |
| 2026-04-18 15:38 | 22.34421 | -86.55610 | 31042 ft | 482 kts | 10° |
| 2026-04-18 15:39 | 22.40952 | -86.54094 | 31039 ft | 479 kts | 10° |
| 2026-04-18 15:39 | 22.47459 | -86.52584 | 31046 ft | 479 kts | 9° |
| 2026-04-18 15:40 | 22.53985 | -86.51068 | 31049 ft | 480 kts | 9° |
| 2026-04-18 15:40 | 22.60488 | -86.49556 | 31047 ft | 482 kts | 9° |
| 2026-04-18 15:41 | 22.67063 | -86.48025 | 31048 ft | 484 kts | 10° |
| 2026-04-18 15:41 | 22.73652 | -86.46489 | 31048 ft | 485 kts | 9° |
| 2026-04-18 15:42 | 22.80257 | -86.44948 | 31047 ft | 486 kts | 9° |
| 2026-04-18 15:42 | 22.86874 | -86.43406 | 31049 ft | 486 kts | 9° |
| 2026-04-18 15:43 | 22.93484 | -86.41863 | 31049 ft | 486 kts | 9° |
| 2026-04-18 15:43 | 23.00088 | -86.40319 | 31048 ft | 485 kts | 9° |
| 2026-04-18 15:44 | 23.06688 | -86.38774 | 31052 ft | 485 kts | 9° |
| 2026-04-18 15:44 | 23.13274 | -86.37232 | 31048 ft | 484 kts | 9° |
| 2026-04-18 15:45 | 23.19862 | -86.35687 | 31048 ft | 484 kts | 9° |
| 2026-04-18 15:45 | 23.26443 | -86.34142 | 31049 ft | 484 kts | 9° |
| 2026-04-18 15:46 | 23.33030 | -86.32595 | 31049 ft | 484 kts | 9° |
| 2026-04-18 15:46 | 23.39617 | -86.31047 | 31056 ft | 484 kts | 9° |
| 2026-04-18 15:47 | 23.46204 | -86.29498 | 31053 ft | 485 kts | 9° |
| 2026-04-18 15:47 | 23.52798 | -86.27944 | 31050 ft | 485 kts | 9° |
| 2026-04-18 15:48 | 23.59396 | -86.26388 | 31055 ft | 485 kts | 9° |
| 2026-04-18 15:48 | 23.65994 | -86.24830 | 31055 ft | 485 kts | 9° |
| 2026-04-18 15:49 | 23.72595 | -86.23270 | 31061 ft | 485 kts | 9° |
| 2026-04-18 15:49 | 23.79193 | -86.21709 | 31059 ft | 485 kts | 9° |
| 2026-04-18 15:50 | 23.85797 | -86.20145 | 31061 ft | 486 kts | 9° |
| 2026-04-18 15:50 | 23.92398 | -86.18579 | 31060 ft | 485 kts | 9° |
| 2026-04-18 15:51 | 23.99004 | -86.17011 | 31064 ft | 485 kts | 9° |
| 2026-04-18 15:51 | 24.05449 | -86.14755 | 31071 ft | 489 kts | 19° |
| 2026-04-18 15:52 | 24.11531 | -86.11327 | 31067 ft | 493 kts | 26° |
| 2026-04-18 15:52 | 24.17477 | -86.07582 | 31066 ft | 493 kts | 26° |
| 2026-04-18 15:53 | 24.23427 | -86.03851 | 31065 ft | 493 kts | 26° |
| 2026-04-18 15:53 | 24.29389 | -86.00143 | 31068 ft | 493 kts | 25° |
| 2026-04-18 15:54 | 24.35319 | -85.96464 | 31073 ft | 493 kts | 25° |
| 2026-04-18 15:54 | 24.41252 | -85.92779 | 31078 ft | 493 kts | 25° |
| 2026-04-18 15:55 | 24.47269 | -85.89037 | 31092 ft | 496 kts | 25° |
| 2026-04-18 15:55 | 24.50281 | -85.87162 | 31300 ft | 498 kts | 25° |
| 2026-04-18 15:55 | 24.53287 | -85.85289 | 31683 ft | 496 kts | 25° |
| 2026-04-18 15:56 | 24.56275 | -85.83424 | 32100 ft | 493 kts | 25° |
| 2026-04-18 15:56 | 24.59244 | -85.81570 | 32519 ft | 490 kts | 25° |
| 2026-04-18 15:56 | 24.62205 | -85.79721 | 32917 ft | 488 kts | 25° |
| 2026-04-18 15:56 | 24.65160 | -85.77876 | 33085 ft | 490 kts | 25° |
| 2026-04-18 15:57 | 24.71105 | -85.74163 | 33068 ft | 490 kts | 25° |
| 2026-04-18 15:57 | 24.77016 | -85.70464 | 33071 ft | 487 kts | 25° |
| 2026-04-18 15:58 | 24.82893 | -85.66783 | 33077 ft | 486 kts | 25° |
| 2026-04-18 15:58 | 24.88771 | -85.63098 | 33077 ft | 486 kts | 25° |
| 2026-04-18 15:59 | 24.94645 | -85.59410 | 33084 ft | 486 kts | 25° |
| 2026-04-18 15:59 | 25.00531 | -85.55711 | 33079 ft | 488 kts | 25° |
| 2026-04-18 16:00 | 25.06426 | -85.52001 | 33080 ft | 488 kts | 25° |
| 2026-04-18 16:00 | 25.12333 | -85.48280 | 33081 ft | 489 kts | 25° |
| 2026-04-18 16:01 | 25.18247 | -85.44542 | 33081 ft | 490 kts | 25° |
| 2026-04-18 16:01 | 25.24164 | -85.40797 | 33086 ft | 490 kts | 25° |
| 2026-04-18 16:02 | 25.30091 | -85.37077 | 33088 ft | 488 kts | 21° |
| 2026-04-18 16:02 | 25.36375 | -85.34540 | 33091 ft | 477 kts | 9° |
| 2026-04-18 16:03 | 25.42869 | -85.33485 | 33100 ft | 470 kts | 0° |
| 2026-04-18 16:03 | 25.49385 | -85.32884 | 33085 ft | 470 kts | 0° |
| 2026-04-18 16:04 | 25.55903 | -85.32257 | 33081 ft | 470 kts | 1° |
| 2026-04-18 16:04 | 25.62426 | -85.31594 | 33089 ft | 471 kts | 0° |
| 2026-04-18 16:05 | 25.68947 | -85.30921 | 33086 ft | 471 kts | 0° |
| 2026-04-18 16:05 | 25.75477 | -85.30246 | 33084 ft | 471 kts | 0° |
| 2026-04-18 16:06 | 25.82003 | -85.29572 | 33090 ft | 471 kts | 0° |
| 2026-04-18 16:06 | 25.88531 | -85.28898 | 33096 ft | 471 kts | 0° |
| 2026-04-18 16:07 | 25.95060 | -85.28223 | 33093 ft | 471 kts | 0° |
| 2026-04-18 16:07 | 26.01594 | -85.27546 | 33081 ft | 471 kts | 0° |
| 2026-04-18 16:08 | 26.08118 | -85.26867 | 33090 ft | 471 kts | 0° |
| 2026-04-18 16:08 | 26.14652 | -85.26183 | 33096 ft | 471 kts | 0° |
| 2026-04-18 16:09 | 26.21178 | -85.25498 | 33094 ft | 471 kts | 0° |
| 2026-04-18 16:09 | 26.27665 | -85.24818 | 33089 ft | 471 kts | 0° |
| 2026-04-18 16:10 | 26.34194 | -85.24131 | 33088 ft | 472 kts | 0° |
| 2026-04-18 16:10 | 26.40689 | -85.22749 | 33088 ft | 479 kts | 10° |
| 2026-04-18 16:11 | 26.47016 | -85.20262 | 33085 ft | 483 kts | 14° |
| 2026-04-18 16:11 | 26.53325 | -85.17648 | 33091 ft | 484 kts | 14° |
| 2026-04-18 16:12 | 26.59642 | -85.15057 | 33097 ft | 484 kts | 14° |
| 2026-04-18 16:12 | 26.65971 | -85.12481 | 33095 ft | 484 kts | 14° |
| 2026-04-18 16:13 | 26.72306 | -85.09907 | 33093 ft | 484 kts | 14° |
| 2026-04-18 16:13 | 26.78682 | -85.07312 | 33106 ft | 485 kts | 14° |
| 2026-04-18 16:14 | 26.84978 | -85.04746 | 33094 ft | 485 kts | 14° |
| 2026-04-18 16:14 | 26.91320 | -85.02157 | 33099 ft | 485 kts | 14° |
| 2026-04-18 16:15 | 27.00820 | -84.98272 | 33095 ft | 484 kts | 14° |
| 2026-04-18 16:16 | 27.07144 | -84.95683 | 33094 ft | 483 kts | 14° |
| 2026-04-18 16:16 | 27.13460 | -84.93094 | 33096 ft | 483 kts | 14° |
| 2026-04-18 16:17 | 27.19774 | -84.90503 | 33096 ft | 483 kts | 14° |
| 2026-04-18 16:17 | 27.26094 | -84.87907 | 33098 ft | 484 kts | 14° |
| 2026-04-18 16:18 | 27.32420 | -84.85303 | 33101 ft | 484 kts | 14° |
| 2026-04-18 16:18 | 27.38742 | -84.82699 | 33117 ft | 484 kts | 14° |
| 2026-04-18 16:19 | 27.45055 | -84.80046 | 33093 ft | 486 kts | 18° |
| 2026-04-18 16:19 | 27.47965 | -84.78014 | 33108 ft | 501 kts | 34° |
| 2026-04-18 16:19 | 27.50400 | -84.75154 | 33114 ft | 513 kts | 48° |
| 2026-04-18 16:19 | 27.52200 | -84.71635 | 33100 ft | 523 kts | 62° |
| 2026-04-18 16:20 | 27.53579 | -84.67832 | 33126 ft | 525 kts | 63° |
| 2026-04-18 16:20 | 27.56322 | -84.60179 | 33110 ft | 527 kts | 63° |
| 2026-04-18 16:21 | 27.58656 | -84.53827 | 33104 ft | 528 kts | 62° |
| 2026-04-18 16:21 | 27.61517 | -84.46200 | 33102 ft | 528 kts | 62° |
| 2026-04-18 16:22 | 27.64387 | -84.38589 | 33105 ft | 527 kts | 62° |
| 2026-04-18 16:22 | 27.67245 | -84.30985 | 33105 ft | 526 kts | 62° |
| 2026-04-18 16:23 | 27.70086 | -84.23398 | 33106 ft | 524 kts | 62° |
| 2026-04-18 16:23 | 27.74319 | -84.12065 | 33100 ft | 521 kts | 62° |
| 2026-04-18 16:24 | 27.77121 | -84.04543 | 33096 ft | 519 kts | 62° |
| 2026-04-18 16:24 | 27.79919 | -83.97022 | 33100 ft | 519 kts | 62° |
| 2026-04-18 16:25 | 27.82708 | -83.89509 | 33123 ft | 519 kts | 62° |
| 2026-04-18 16:25 | 27.85495 | -83.81984 | 33107 ft | 519 kts | 62° |
| 2026-04-18 16:26 | 27.88274 | -83.74465 | 33100 ft | 518 kts | 62° |
| 2026-04-18 16:26 | 27.91050 | -83.66942 | 33100 ft | 518 kts | 62° |
| 2026-04-18 16:27 | 27.93820 | -83.59417 | 33099 ft | 519 kts | 62° |
| 2026-04-18 16:27 | 27.96570 | -83.51933 | 33117 ft | 519 kts | 62° |
| 2026-04-18 16:28 | 27.99939 | -83.44903 | 33099 ft | 497 kts | 40° |
| 2026-04-18 16:28 | 28.02536 | -83.42425 | 33112 ft | 484 kts | 26° |
| 2026-04-18 16:28 | 28.05482 | -83.40667 | 33098 ft | 475 kts | 15° |
| 2026-04-18 16:29 | 28.11780 | -83.38823 | 33106 ft | 468 kts | 8° |
| 2026-04-18 16:29 | 28.18140 | -83.37089 | 33109 ft | 472 kts | 8° |
| 2026-04-18 16:30 | 28.24542 | -83.35276 | 33109 ft | 476 kts | 8° |
| 2026-04-18 16:30 | 28.30967 | -83.33425 | 33104 ft | 478 kts | 8° |
| 2026-04-18 16:31 | 28.37416 | -83.31558 | 33097 ft | 478 kts | 8° |
| 2026-04-18 16:31 | 28.43857 | -83.29694 | 33097 ft | 477 kts | 8° |
| 2026-04-18 16:32 | 28.50289 | -83.27831 | 33110 ft | 476 kts | 8° |
| 2026-04-18 16:32 | 28.56704 | -83.25972 | 33095 ft | 475 kts | 8° |
| 2026-04-18 16:33 | 28.63105 | -83.24116 | 33100 ft | 474 kts | 8° |
| 2026-04-18 16:33 | 28.69493 | -83.22260 | 33099 ft | 474 kts | 8° |
| 2026-04-18 16:34 | 28.75878 | -83.20404 | 33108 ft | 474 kts | 8° |
| 2026-04-18 16:34 | 28.82266 | -83.18544 | 33110 ft | 474 kts | 8° |
| 2026-04-18 16:35 | 28.88659 | -83.16680 | 33103 ft | 475 kts | 8° |
| 2026-04-18 16:35 | 28.95064 | -83.14810 | 33109 ft | 475 kts | 8° |
| 2026-04-18 16:36 | 29.01422 | -83.12951 | 33102 ft | 475 kts | 8° |
| 2026-04-18 16:36 | 29.07820 | -83.11078 | 33112 ft | 475 kts | 8° |
| 2026-04-18 16:37 | 29.14224 | -83.09201 | 33103 ft | 475 kts | 8° |
| 2026-04-18 16:37 | 29.20666 | -83.07310 | 33100 ft | 475 kts | 8° |
| 2026-04-18 16:38 | 29.27024 | -83.05443 | 33101 ft | 475 kts | 8° |
| 2026-04-18 16:38 | 29.33427 | -83.03584 | 33098 ft | 475 kts | 8° |
| 2026-04-18 16:39 | 29.39835 | -83.01726 | 33101 ft | 475 kts | 8° |
| 2026-04-18 16:39 | 29.46248 | -82.99861 | 33098 ft | 476 kts | 8° |
| 2026-04-18 16:40 | 29.52666 | -82.97990 | 33096 ft | 476 kts | 8° |
| 2026-04-18 16:40 | 29.59082 | -82.96094 | 33103 ft | 476 kts | 8° |
| 2026-04-18 16:41 | 29.68715 | -82.93228 | 33097 ft | 477 kts | 8° |
| 2026-04-18 16:42 | 29.75146 | -82.91316 | 33106 ft | 477 kts | 8° |
| 2026-04-18 16:42 | 29.81578 | -82.89402 | 33104 ft | 478 kts | 8° |
| 2026-04-18 16:43 | 29.88011 | -82.87484 | 33091 ft | 478 kts | 8° |
| 2026-04-18 16:43 | 29.94446 | -82.85564 | 33116 ft | 478 kts | 8° |
| 2026-04-18 16:44 | 30.00890 | -82.83639 | 33099 ft | 478 kts | 8° |
| 2026-04-18 16:44 | 30.07327 | -82.81713 | 33107 ft | 478 kts | 8° |
| 2026-04-18 16:45 | 30.13766 | -82.79783 | 33106 ft | 478 kts | 8° |
| 2026-04-18 16:45 | 30.20206 | -82.77850 | 33135 ft | 478 kts | 8° |
| 2026-04-18 16:46 | 30.26648 | -82.75914 | 33118 ft | 478 kts | 8° |
| 2026-04-18 16:46 | 30.33088 | -82.73976 | 33126 ft | 478 kts | 8° |
| 2026-04-18 16:47 | 30.39529 | -82.72035 | 33130 ft | 478 kts | 8° |
| 2026-04-18 16:47 | 30.45970 | -82.70091 | 33164 ft | 478 kts | 8° |
| 2026-04-18 16:48 | 30.52425 | -82.68228 | 33162 ft | 475 kts | 5° |
| 2026-04-18 16:48 | 30.58915 | -82.66845 | 33165 ft | 474 kts | 4° |
| 2026-04-18 16:49 | 30.65416 | -82.65512 | 33159 ft | 475 kts | 4° |
| 2026-04-18 16:49 | 30.71916 | -82.64150 | 33162 ft | 475 kts | 4° |
| 2026-04-18 16:50 | 30.78422 | -82.62767 | 33140 ft | 475 kts | 4° |
| 2026-04-18 16:50 | 30.84932 | -82.61379 | 33144 ft | 476 kts | 4° |
| 2026-04-18 16:51 | 30.91454 | -82.59988 | 33130 ft | 477 kts | 4° |
| 2026-04-18 16:51 | 30.97985 | -82.58593 | 33106 ft | 478 kts | 4° |
| 2026-04-18 16:52 | 31.04526 | -82.57185 | 33120 ft | 479 kts | 5° |
| 2026-04-18 16:52 | 31.10966 | -82.54872 | 33115 ft | 490 kts | 15° |
| 2026-04-18 16:53 | 31.17138 | -82.51316 | 33114 ft | 496 kts | 21° |
| 2026-04-18 16:53 | 31.23244 | -82.47532 | 33075 ft | 497 kts | 21° |
| 2026-04-18 16:54 | 31.29355 | -82.43768 | 33078 ft | 497 kts | 21° |
| 2026-04-18 16:54 | 31.35485 | -82.40025 | 33081 ft | 497 kts | 21° |
| 2026-04-18 16:55 | 31.41617 | -82.36289 | 33074 ft | 497 kts | 21° |
| 2026-04-18 16:55 | 31.47752 | -82.32544 | 33053 ft | 497 kts | 21° |
| 2026-04-18 16:56 | 31.53874 | -82.28798 | 33051 ft | 496 kts | 21° |
| 2026-04-18 16:56 | 31.59984 | -82.25055 | 33060 ft | 496 kts | 21° |
| 2026-04-18 16:57 | 31.66102 | -82.21301 | 33041 ft | 496 kts | 21° |
| 2026-04-18 16:57 | 31.72216 | -82.17548 | 33043 ft | 496 kts | 21° |
| 2026-04-18 16:58 | 31.78327 | -82.13786 | 33052 ft | 496 kts | 21° |
| 2026-04-18 16:58 | 31.84453 | -82.10007 | 33067 ft | 497 kts | 21° |
| 2026-04-18 16:59 | 31.90585 | -82.06221 | 33066 ft | 498 kts | 21° |
| 2026-04-18 16:59 | 31.96721 | -82.02429 | 33069 ft | 499 kts | 21° |
| 2026-04-18 17:00 | 32.02862 | -81.98627 | 33066 ft | 499 kts | 21° |
| 2026-04-18 17:00 | 32.09019 | -81.94810 | 33065 ft | 500 kts | 21° |
| 2026-04-18 17:01 | 32.15179 | -81.90986 | 33069 ft | 500 kts | 21° |
| 2026-04-18 17:01 | 32.21392 | -81.87297 | 33066 ft | 499 kts | 20° |
| 2026-04-18 17:02 | 32.27628 | -81.83681 | 33067 ft | 499 kts | 20° |
| 2026-04-18 17:02 | 32.33860 | -81.80046 | 33059 ft | 499 kts | 20° |
| 2026-04-18 17:03 | 32.40090 | -81.76385 | 33053 ft | 500 kts | 20° |
| 2026-04-18 17:03 | 32.46317 | -81.72707 | 33048 ft | 501 kts | 20° |
| 2026-04-18 17:04 | 32.52554 | -81.69017 | 33048 ft | 501 kts | 20° |
| 2026-04-18 17:04 | 32.57737 | -81.65950 | 33071 ft | 501 kts | 20° |
| 2026-04-18 17:05 | 32.63969 | -81.62259 | 33076 ft | 501 kts | 20° |
| 2026-04-18 17:05 | 32.70203 | -81.58569 | 33078 ft | 500 kts | 20° |
| 2026-04-18 17:06 | 32.76434 | -81.54869 | 33030 ft | 500 kts | 20° |
| 2026-04-18 17:06 | 32.82655 | -81.51166 | 33027 ft | 500 kts | 20° |
| 2026-04-18 17:07 | 32.88880 | -81.47454 | 33045 ft | 500 kts | 20° |
| 2026-04-18 17:07 | 32.95102 | -81.43732 | 33037 ft | 501 kts | 20° |
| 2026-04-18 17:08 | 33.01330 | -81.40005 | 33036 ft | 501 kts | 20° |
| 2026-04-18 17:08 | 33.07563 | -81.36273 | 33041 ft | 501 kts | 20° |
| 2026-04-18 17:09 | 33.13804 | -81.32530 | 33044 ft | 502 kts | 20° |
| 2026-04-18 17:09 | 33.20037 | -81.28785 | 33053 ft | 502 kts | 20° |
| 2026-04-18 17:10 | 33.26266 | -81.25041 | 33056 ft | 501 kts | 20° |
| 2026-04-18 17:10 | 33.32481 | -81.21292 | 33041 ft | 500 kts | 20° |
| 2026-04-18 17:11 | 33.38684 | -81.17542 | 33047 ft | 499 kts | 20° |
| 2026-04-18 17:11 | 33.44875 | -81.13799 | 33021 ft | 499 kts | 20° |
| 2026-04-18 17:12 | 33.51065 | -81.10050 | 33030 ft | 498 kts | 20° |
| 2026-04-18 17:12 | 33.57253 | -81.06297 | 33029 ft | 499 kts | 20° |
| 2026-04-18 17:13 | 33.63450 | -81.02531 | 33050 ft | 499 kts | 20° |
| 2026-04-18 17:13 | 33.69644 | -80.98760 | 33027 ft | 500 kts | 20° |
| 2026-04-18 17:14 | 33.75846 | -80.94977 | 33010 ft | 499 kts | 20° |
| 2026-04-18 17:14 | 33.82041 | -80.91253 | 33016 ft | 496 kts | 17° |
| 2026-04-18 17:15 | 33.88497 | -80.88663 | 33043 ft | 484 kts | 7° |
| 2026-04-18 17:15 | 33.95081 | -80.87393 | 33029 ft | 477 kts | 1° |
| 2026-04-18 17:16 | 34.01659 | -80.86294 | 33012 ft | 477 kts | 1° |
| 2026-04-18 17:16 | 34.08225 | -80.85131 | 33032 ft | 477 kts | 2° |
| 2026-04-18 17:17 | 34.14799 | -80.83937 | 33047 ft | 478 kts | 3° |
| 2026-04-18 17:17 | 34.21299 | -80.81928 | 33044 ft | 486 kts | 11° |
| 2026-04-18 17:18 | 34.27762 | -80.79465 | 33037 ft | 487 kts | 11° |
| 2026-04-18 17:18 | 34.34230 | -80.77024 | 33028 ft | 487 kts | 11° |
| 2026-04-18 17:19 | 34.40714 | -80.74609 | 33022 ft | 488 kts | 11° |
| 2026-04-18 17:19 | 34.47202 | -80.72197 | 33023 ft | 488 kts | 11° |
| 2026-04-18 17:20 | 34.53649 | -80.69794 | 33026 ft | 488 kts | 11° |
| 2026-04-18 17:20 | 34.60138 | -80.67370 | 33036 ft | 488 kts | 11° |
| 2026-04-18 17:21 | 34.66641 | -80.64799 | 33048 ft | 491 kts | 14° |
| 2026-04-18 17:21 | 34.72969 | -80.61784 | 33030 ft | 492 kts | 15° |
| 2026-04-18 17:22 | 34.79331 | -80.58684 | 33040 ft | 493 kts | 15° |
| 2026-04-18 17:22 | 34.85709 | -80.55597 | 33038 ft | 493 kts | 15° |
| 2026-04-18 17:23 | 34.92086 | -80.52529 | 33062 ft | 493 kts | 16° |
| 2026-04-18 17:23 | 34.98462 | -80.49466 | 33047 ft | 492 kts | 16° |
| 2026-04-18 17:24 | 35.04820 | -80.46405 | 33037 ft | 491 kts | 16° |
| 2026-04-18 17:24 | 35.11165 | -80.43335 | 33036 ft | 490 kts | 16° |
| 2026-04-18 17:25 | 35.17499 | -80.40270 | 33027 ft | 490 kts | 16° |
| 2026-04-18 17:25 | 35.23835 | -80.37200 | 33039 ft | 490 kts | 16° |
| 2026-04-18 17:26 | 35.30172 | -80.34125 | 33055 ft | 490 kts | 16° |
| 2026-04-18 17:26 | 35.36519 | -80.31039 | 33088 ft | 491 kts | 16° |
| 2026-04-18 17:27 | 35.42879 | -80.27948 | 33077 ft | 492 kts | 16° |
| 2026-04-18 17:27 | 35.52441 | -80.23275 | 33068 ft | 494 kts | 17° |
| 2026-04-18 17:28 | 35.58832 | -80.20148 | 33051 ft | 494 kts | 17° |
| 2026-04-18 17:28 | 35.65219 | -80.17019 | 33023 ft | 495 kts | 17° |
| 2026-04-18 17:29 | 35.71606 | -80.13884 | 33027 ft | 493 kts | 16° |
| 2026-04-18 17:29 | 35.77970 | -80.10755 | 33017 ft | 492 kts | 16° |
| 2026-04-18 17:30 | 35.84307 | -80.07636 | 33037 ft | 490 kts | 16° |
| 2026-04-18 17:30 | 35.90647 | -80.04509 | 33019 ft | 490 kts | 16° |
| 2026-04-18 17:31 | 35.96968 | -80.01380 | 33024 ft | 490 kts | 16° |
| 2026-04-18 17:31 | 36.03266 | -79.98140 | 33033 ft | 493 kts | 21° |
| 2026-04-18 17:32 | 36.09155 | -79.93686 | 33058 ft | 501 kts | 31° |
| 2026-04-18 17:32 | 36.14758 | -79.88514 | 33036 ft | 503 kts | 31° |
| 2026-04-18 17:33 | 36.23217 | -79.80827 | 33025 ft | 503 kts | 31° |
| 2026-04-18 17:34 | 36.28874 | -79.75726 | 33021 ft | 503 kts | 31° |
| 2026-04-18 17:34 | 36.34530 | -79.70616 | 33031 ft | 503 kts | 31° |
| 2026-04-18 17:35 | 36.40188 | -79.65492 | 33000 ft | 504 kts | 31° |
| 2026-04-18 17:35 | 36.45852 | -79.60352 | 32993 ft | 504 kts | 31° |
| 2026-04-18 17:36 | 36.51510 | -79.55208 | 32991 ft | 504 kts | 31° |
| 2026-04-18 17:36 | 36.57165 | -79.50057 | 33027 ft | 504 kts | 31° |
| 2026-04-18 17:37 | 36.62817 | -79.44899 | 33022 ft | 504 kts | 31° |
| 2026-04-18 17:37 | 36.68476 | -79.39725 | 33019 ft | 505 kts | 31° |
| 2026-04-18 17:38 | 36.74137 | -79.34541 | 33018 ft | 506 kts | 32° |
| 2026-04-18 17:38 | 36.79816 | -79.29329 | 33016 ft | 507 kts | 32° |
| 2026-04-18 17:39 | 36.85502 | -79.24102 | 33003 ft | 508 kts | 32° |
| 2026-04-18 17:39 | 36.91195 | -79.18856 | 32998 ft | 509 kts | 32° |
| 2026-04-18 17:40 | 36.96893 | -79.13596 | 32996 ft | 509 kts | 32° |
| 2026-04-18 17:40 | 37.02594 | -79.08324 | 32997 ft | 510 kts | 32° |
| 2026-04-18 17:41 | 37.08297 | -79.03036 | 33003 ft | 509 kts | 33° |
| 2026-04-18 17:41 | 37.13978 | -78.97762 | 32997 ft | 508 kts | 33° |
| 2026-04-18 17:42 | 37.19654 | -78.92488 | 33019 ft | 507 kts | 33° |
| 2026-04-18 17:42 | 37.25326 | -78.87217 | 33005 ft | 507 kts | 33° |
| 2026-04-18 17:43 | 37.30982 | -78.81942 | 32998 ft | 507 kts | 33° |
| 2026-04-18 17:43 | 37.36642 | -78.76631 | 32996 ft | 507 kts | 33° |
| 2026-04-18 17:44 | 37.42297 | -78.71324 | 33001 ft | 507 kts | 33° |
| 2026-04-18 17:44 | 37.47959 | -78.66009 | 32993 ft | 508 kts | 34° |
| 2026-04-18 17:45 | 37.53622 | -78.60685 | 32994 ft | 508 kts | 34° |
| 2026-04-18 17:45 | 37.59282 | -78.55353 | 32989 ft | 508 kts | 34° |
| 2026-04-18 17:46 | 37.64938 | -78.50010 | 32998 ft | 508 kts | 34° |
| 2026-04-18 17:46 | 37.70598 | -78.44652 | 32993 ft | 509 kts | 34° |
| 2026-04-18 17:47 | 37.75306 | -78.40187 | 32984 ft | 509 kts | 34° |
| 2026-04-18 17:47 | 37.80969 | -78.34809 | 32978 ft | 509 kts | 34° |
| 2026-04-18 17:48 | 37.86630 | -78.29417 | 32979 ft | 509 kts | 34° |
| 2026-04-18 17:48 | 37.92291 | -78.24010 | 32986 ft | 509 kts | 34° |
| 2026-04-18 17:49 | 37.97946 | -78.18608 | 32993 ft | 509 kts | 34° |
| 2026-04-18 17:49 | 38.03511 | -78.13036 | 32982 ft | 511 kts | 38° |
| 2026-04-18 17:50 | 38.08816 | -78.07035 | 32984 ft | 512 kts | 40° |
| 2026-04-18 17:50 | 38.14090 | -78.00985 | 32986 ft | 512 kts | 39° |
| 2026-04-18 17:51 | 38.19434 | -77.94890 | 32968 ft | 512 kts | 39° |
| 2026-04-18 17:51 | 38.24712 | -77.88897 | 32980 ft | 512 kts | 39° |
| 2026-04-18 17:52 | 38.30054 | -77.82815 | 32979 ft | 512 kts | 39° |
| 2026-04-18 17:52 | 38.35353 | -77.76759 | 32989 ft | 512 kts | 39° |
| 2026-04-18 17:53 | 38.40626 | -77.70727 | 32989 ft | 513 kts | 39° |
| 2026-04-18 17:53 | 38.45933 | -77.64650 | 32993 ft | 513 kts | 39° |
| 2026-04-18 17:54 | 38.51241 | -77.58560 | 32992 ft | 513 kts | 40° |
| 2026-04-18 17:54 | 38.56545 | -77.52442 | 32995 ft | 513 kts | 39° |
| 2026-04-18 17:55 | 38.61835 | -77.46337 | 33011 ft | 512 kts | 39° |
| 2026-04-18 17:55 | 38.66742 | -77.40667 | 33015 ft | 512 kts | 39° |
| 2026-04-18 17:56 | 38.71379 | -77.35301 | 33003 ft | 512 kts | 39° |
| 2026-04-18 17:56 | 38.78374 | -77.26775 | 32974 ft | 514 kts | 43° |
| 2026-04-18 17:57 | 38.85895 | -77.16977 | 32994 ft | 513 kts | 43° |
| 2026-04-18 17:58 | 38.95984 | -77.04012 | 33018 ft | 513 kts | 43° |
| 2026-04-18 17:59 | 39.02611 | -76.95483 | 33017 ft | 513 kts | 43° |
| 2026-04-18 18:00 | 39.07629 | -76.89008 | 33042 ft | 512 kts | 43° |